sensor_id;sensor_type;location;lat;lon;timestamp;pressure;altitude;pressure_sealevel;temperature;humidity
17438;BME280;70275;52.198;5.422;2023-07-29T00:00:09;100626.47;;;18.34;78.56
17438;BME280;70275;52.198;5.422;2023-07-29T00:02:38;100618.88;;;18.38;78.04
17438;BME280;70275;52.198;5.422;2023-07-29T00:05:08;100615.03;;;18.55;78.00
17438;BME280;70275;52.198;5.422;2023-07-29T00:07:37;100611.22;;;18.64;77.49
17438;BME280;70275;52.198;5.422;2023-07-29T00:10:10;100611.75;;;18.45;77.40
17438;BME280;70275;52.198;5.422;2023-07-29T00:12:39;100617.22;;;18.37;77.90
17438;BME280;70275;52.198;5.422;2023-07-29T00:15:09;100611.75;;;18.45;78.26
17438;BME280;70275;52.198;5.422;2023-07-29T00:17:39;100610.88;;;18.52;77.58
17438;BME280;70275;52.198;5.422;2023-07-29T00:20:08;100603.81;;;18.37;77.87
17438;BME280;70275;52.198;5.422;2023-07-29T00:22:37;100606.13;;;18.54;77.54
17438;BME280;70275;52.198;5.422;2023-07-29T00:25:09;100598.34;;;18.45;77.43
17438;BME280;70275;52.198;5.422;2023-07-29T00:27:38;100591.34;;;18.58;76.86
17438;BME280;70275;52.198;5.422;2023-07-29T00:30:08;100591.63;;;18.49;76.65
17438;BME280;70275;52.198;5.422;2023-07-29T00:32:38;100590.97;;;18.32;77.36
17438;BME280;70275;52.198;5.422;2023-07-29T00:35:08;100583.47;;;18.28;77.56
17438;BME280;70275;52.198;5.422;2023-07-29T00:37:37;100579.75;;;18.43;77.07
17438;BME280;70275;52.198;5.422;2023-07-29T00:40:20;100580.75;;;18.42;76.81
17438;BME280;70275;52.198;5.422;2023-07-29T00:42:50;100571.38;;;18.46;76.94
17438;BME280;70275;52.198;5.422;2023-07-29T00:45:19;100568.53;;;18.69;75.96
17438;BME280;70275;52.198;5.422;2023-07-29T00:47:48;100580.06;;;18.48;76.89
17438;BME280;70275;52.198;5.422;2023-07-29T00:50:17;100588.19;;;18.55;76.63
17438;BME280;70275;52.198;5.422;2023-07-29T00:52:48;100577.06;;;18.43;77.31
17438;BME280;70275;52.198;5.422;2023-07-29T00:55:20;100584.66;;;18.40;77.45
17438;BME280;70275;52.198;5.422;2023-07-29T00:57:51;100583.75;;;18.47;77.31
17438;BME280;70275;52.198;5.422;2023-07-29T01:00:21;100581.88;;;18.33;77.78
17438;BME280;70275;52.198;5.422;2023-07-29T01:02:50;100576.91;;;18.30;77.80
17438;BME280;70275;52.198;5.422;2023-07-29T01:05:21;100577.25;;;18.27;78.54
17438;BME280;70275;52.198;5.422;2023-07-29T01:07:58;100569.84;;;18.44;77.90
17438;BME280;70275;52.198;5.422;2023-07-29T01:10:49;100569.75;;;18.66;77.27
17438;BME280;70275;52.198;5.422;2023-07-29T01:13:31;100571.16;;;18.62;77.22
17438;BME280;70275;52.198;5.422;2023-07-29T01:16:07;100567.09;;;18.52;77.69
17438;BME280;70275;52.198;5.422;2023-07-29T01:18:39;100567.09;;;18.52;77.87
17438;BME280;70275;52.198;5.422;2023-07-29T01:21:09;100571.69;;;18.29;78.60
17438;BME280;70275;52.198;5.422;2023-07-29T01:23:42;100567.72;;;18.25;78.86
17438;BME280;70275;52.198;5.422;2023-07-29T01:26:12;100567.16;;;18.29;79.16
17438;BME280;70275;52.198;5.422;2023-07-29T01:28:41;100567.84;;;18.17;79.24
17438;BME280;70275;52.198;5.422;2023-07-29T01:31:21;100573.09;;;18.25;79.59
17438;BME280;70275;52.198;5.422;2023-07-29T01:33:59;100563.94;;;18.19;79.80
17438;BME280;70275;52.198;5.422;2023-07-29T01:36:35;100566.72;;;18.26;79.74
17438;BME280;70275;52.198;5.422;2023-07-29T01:39:10;100560.59;;;18.17;79.66
17438;BME280;70275;52.198;5.422;2023-07-29T01:41:40;100566.53;;;18.13;80.08
17438;BME280;70275;52.198;5.422;2023-07-29T01:44:11;100557.94;;;18.02;80.86
17438;BME280;70275;52.198;5.422;2023-07-29T01:46:41;100563.31;;;18.02;81.25
17438;BME280;70275;52.198;5.422;2023-07-29T01:49:10;100562.81;;;17.99;81.48
17438;BME280;70275;52.198;5.422;2023-07-29T01:51:39;100570.78;;;18.07;81.15
17438;BME280;70275;52.198;5.422;2023-07-29T01:54:11;100556.34;;;17.93;82.07
17438;BME280;70275;52.198;5.422;2023-07-29T01:56:39;100566.25;;;17.93;82.32
17438;BME280;70275;52.198;5.422;2023-07-29T01:59:08;100559.75;;;17.87;82.23
17438;BME280;70275;52.198;5.422;2023-07-29T02:01:39;100557.00;;;17.95;81.93
17438;BME280;70275;52.198;5.422;2023-07-29T02:04:08;100546.34;;;17.87;82.37
17438;BME280;70275;52.198;5.422;2023-07-29T02:06:37;100548.41;;;17.85;82.73
17438;BME280;70275;52.198;5.422;2023-07-29T02:09:06;100549.22;;;17.86;82.33
17438;BME280;70275;52.198;5.422;2023-07-29T02:11:38;100547.00;;;17.89;82.80
17438;BME280;70275;52.198;5.422;2023-07-29T02:14:07;100547.00;;;17.89;82.78
17438;BME280;70275;52.198;5.422;2023-07-29T02:16:36;100538.78;;;17.91;82.72
17438;BME280;70275;52.198;5.422;2023-07-29T02:19:05;100543.13;;;17.92;83.08
17438;BME280;70275;52.198;5.422;2023-07-29T02:21:33;100536.84;;;17.99;82.68
17438;BME280;70275;52.198;5.422;2023-07-29T02:24:03;100544.69;;;18.01;83.02
17438;BME280;70275;52.198;5.422;2023-07-29T02:26:32;100542.22;;;17.99;82.92
17438;BME280;70275;52.198;5.422;2023-07-29T02:29:04;100528.34;;;17.81;83.62
17438;BME280;70275;52.198;5.422;2023-07-29T02:31:33;100528.16;;;17.83;83.87
17438;BME280;70275;52.198;5.422;2023-07-29T02:34:03;100531.03;;;17.81;83.96
17438;BME280;70275;52.198;5.422;2023-07-29T02:36:32;100533.69;;;17.81;83.96
17438;BME280;70275;52.198;5.422;2023-07-29T02:39:01;100537.28;;;17.74;84.26
17438;BME280;70275;52.198;5.422;2023-07-29T02:41:30;100538.97;;;17.75;84.33
17438;BME280;70275;52.198;5.422;2023-07-29T02:43:59;100537.47;;;17.72;84.42
17438;BME280;70275;52.198;5.422;2023-07-29T02:46:31;100538.78;;;17.76;84.31
17438;BME280;70275;52.198;5.422;2023-07-29T02:49:01;100529.91;;;17.76;84.36
17438;BME280;70275;52.198;5.422;2023-07-29T02:51:31;100529.44;;;17.72;84.47
17438;BME280;70275;52.198;5.422;2023-07-29T02:54:00;100520.72;;;17.70;84.46
17438;BME280;70275;52.198;5.422;2023-07-29T02:56:29;100531.56;;;17.77;84.21
17438;BME280;70275;52.198;5.422;2023-07-29T02:58:58;100532.03;;;17.80;83.58
17438;BME280;70275;52.198;5.422;2023-07-29T03:01:30;100523.63;;;17.83;83.85
17438;BME280;70275;52.198;5.422;2023-07-29T03:03:59;100534.25;;;17.77;83.84
17438;BME280;70275;52.198;5.422;2023-07-29T03:06:28;100527.03;;;17.63;84.19
17438;BME280;70275;52.198;5.422;2023-07-29T03:08:57;100520.75;;;17.48;84.76
17438;BME280;70275;52.198;5.422;2023-07-29T03:11:26;100528.66;;;17.64;84.59
17438;BME280;70275;52.198;5.422;2023-07-29T03:13:55;100520.72;;;17.56;84.07
17438;BME280;70275;52.198;5.422;2023-07-29T03:16:23;100513.97;;;17.60;84.00
17438;BME280;70275;52.198;5.422;2023-07-29T03:18:55;100515.53;;;17.54;83.79
17438;BME280;70275;52.198;5.422;2023-07-29T03:21:26;100503.38;;;17.44;83.99
17438;BME280;70275;52.198;5.422;2023-07-29T03:23:55;100514.19;;;17.50;83.93
17438;BME280;70275;52.198;5.422;2023-07-29T03:26:24;100507.44;;;17.40;83.71
17438;BME280;70275;52.198;5.422;2023-07-29T03:28:53;100505.59;;;17.40;83.91
17438;BME280;70275;52.198;5.422;2023-07-29T03:31:21;100503.63;;;17.34;83.70
17438;BME280;70275;52.198;5.422;2023-07-29T03:33:50;100517.06;;;17.49;83.33
17438;BME280;70275;52.198;5.422;2023-07-29T03:36:22;100513.38;;;17.50;82.86
17438;BME280;70275;52.198;5.422;2023-07-29T03:38:51;100512.13;;;17.60;82.37
17438;BME280;70275;52.198;5.422;2023-07-29T03:41:20;100512.72;;;17.48;82.75
17438;BME280;70275;52.198;5.422;2023-07-29T03:43:49;100507.91;;;17.43;82.53
17438;BME280;70275;52.198;5.422;2023-07-29T03:46:18;100505.06;;;17.45;82.11
17438;BME280;70275;52.198;5.422;2023-07-29T03:48:48;100503.38;;;17.44;82.32
17438;BME280;70275;52.198;5.422;2023-07-29T03:51:17;100514.75;;;17.46;81.98
17438;BME280;70275;52.198;5.422;2023-07-29T03:53:49;100497.53;;;17.40;81.79
17438;BME280;70275;52.198;5.422;2023-07-29T03:56:18;100504.59;;;17.41;81.73
17438;BME280;70275;52.198;5.422;2023-07-29T03:58:47;100511.13;;;17.38;81.96
17438;BME280;70275;52.198;5.422;2023-07-29T04:01:16;100505.31;;;17.35;81.93
17438;BME280;70275;52.198;5.422;2023-07-29T04:03:45;100524.22;;;17.33;81.79
17438;BME280;70275;52.198;5.422;2023-07-29T04:06:14;100517.63;;;17.21;81.70
17438;BME280;70275;52.198;5.422;2023-07-29T04:08:43;100517.56;;;17.29;81.29
17438;BME280;70275;52.198;5.422;2023-07-29T04:11:15;100522.94;;;17.29;81.32
17438;BME280;70275;52.198;5.422;2023-07-29T04:13:44;100533.84;;;17.28;81.25
17438;BME280;70275;52.198;5.422;2023-07-29T04:16:13;100537.41;;;17.20;81.26
17438;BME280;70275;52.198;5.422;2023-07-29T04:18:42;100531.31;;;17.26;80.73
17438;BME280;70275;52.198;5.422;2023-07-29T04:21:11;100524.84;;;17.21;80.80
17438;BME280;70275;52.198;5.422;2023-07-29T04:23:40;100523.28;;;17.26;80.60
17438;BME280;70275;52.198;5.422;2023-07-29T04:26:09;100499.72;;;17.45;79.82
17438;BME280;70275;52.198;5.422;2023-07-29T04:28:41;100507.19;;;17.49;80.08
17438;BME280;70275;52.198;5.422;2023-07-29T04:31:10;100508.53;;;17.53;79.82
17438;BME280;70275;52.198;5.422;2023-07-29T04:33:39;100511.47;;;17.35;80.63
17438;BME280;70275;52.198;5.422;2023-07-29T04:36:08;100514.69;;;17.31;80.52
17438;BME280;70275;52.198;5.422;2023-07-29T04:38:37;100521.22;;;17.14;81.05
17438;BME280;70275;52.198;5.422;2023-07-29T04:41:06;100529.25;;;17.14;80.97
17438;BME280;70275;52.198;5.422;2023-07-29T04:43:37;100520.19;;;17.15;81.18
17438;BME280;70275;52.198;5.422;2023-07-29T04:46:09;100522.34;;;17.19;81.00
17438;BME280;70275;52.198;5.422;2023-07-29T04:48:38;100528.19;;;17.23;80.99
17438;BME280;70275;52.198;5.422;2023-07-29T04:51:07;100526.50;;;17.22;81.03
17438;BME280;70275;52.198;5.422;2023-07-29T04:53:36;100518.75;;;17.27;80.81
17438;BME280;70275;52.198;5.422;2023-07-29T04:56:05;100513.13;;;17.22;80.45
17438;BME280;70275;52.198;5.422;2023-07-29T04:58:34;100520.44;;;17.28;80.54
17438;BME280;70275;52.198;5.422;2023-07-29T05:01:04;100529.81;;;17.24;80.47
17438;BME280;70275;52.198;5.422;2023-07-29T05:03:36;100519.78;;;17.26;80.15
17438;BME280;70275;52.198;5.422;2023-07-29T05:06:06;100527.00;;;17.25;80.42
17438;BME280;70275;52.198;5.422;2023-07-29T05:08:34;100529.94;;;17.08;80.89
17438;BME280;70275;52.198;5.422;2023-07-29T05:11:03;100535.47;;;17.29;80.35
17438;BME280;70275;52.198;5.422;2023-07-29T05:13:32;100530.31;;;17.27;80.20
17438;BME280;70275;52.198;5.422;2023-07-29T05:16:01;100536.50;;;17.28;80.18
17438;BME280;70275;52.198;5.422;2023-07-29T05:18:30;100542.44;;;17.38;79.78
17438;BME280;70275;52.198;5.422;2023-07-29T05:21:02;100546.31;;;17.35;79.69
17438;BME280;70275;52.198;5.422;2023-07-29T05:23:31;100540.19;;;17.27;80.17
17438;BME280;70275;52.198;5.422;2023-07-29T05:26:00;100546.38;;;17.27;80.09
17438;BME280;70275;52.198;5.422;2023-07-29T05:28:28;100543.47;;;17.37;79.72
17438;BME280;70275;52.198;5.422;2023-07-29T05:31:01;100542.72;;;17.43;79.11
17438;BME280;70275;52.198;5.422;2023-07-29T05:33:30;100545.13;;;17.61;79.22
17438;BME280;70275;52.198;5.422;2023-07-29T05:36:02;100538.94;;;17.60;78.77
17438;BME280;70275;52.198;5.422;2023-07-29T05:38:31;100546.78;;;17.62;78.88
17438;BME280;70275;52.198;5.422;2023-07-29T05:41:00;100542.91;;;17.64;78.63
17438;BME280;70275;52.198;5.422;2023-07-29T05:43:29;100539.88;;;17.67;78.83
17438;BME280;70275;52.198;5.422;2023-07-29T05:45:58;100543.78;;;17.94;78.11
17438;BME280;70275;52.198;5.422;2023-07-29T05:48:28;100545.72;;;17.85;77.80
17438;BME280;70275;52.198;5.422;2023-07-29T05:50:57;100545.88;;;17.69;78.50
17438;BME280;70275;52.198;5.422;2023-07-29T05:53:28;100550.28;;;17.62;79.19
17438;BME280;70275;52.198;5.422;2023-07-29T05:55:57;100551.25;;;17.69;78.75
17438;BME280;70275;52.198;5.422;2023-07-29T05:58:26;100555.31;;;17.65;79.34
17438;BME280;70275;52.198;5.422;2023-07-29T06:00:57;100554.41;;;17.87;78.85
17438;BME280;70275;52.198;5.422;2023-07-29T06:03:26;100551.63;;;17.81;78.59
17438;BME280;70275;52.198;5.422;2023-07-29T06:05:55;100558.28;;;17.85;78.46
17438;BME280;70275;52.198;5.422;2023-07-29T06:08:24;100552.03;;;18.07;77.85
17438;BME280;70275;52.198;5.422;2023-07-29T06:10:57;100557.56;;;18.05;77.59
17438;BME280;70275;52.198;5.422;2023-07-29T06:13:25;100560.50;;;18.11;77.66
17438;BME280;70275;52.198;5.422;2023-07-29T06:15:54;100555.06;;;18.19;77.38
17438;BME280;70275;52.198;5.422;2023-07-29T06:18:24;100549.25;;;18.30;77.08
17438;BME280;70275;52.198;5.422;2023-07-29T06:20:53;100552.75;;;18.59;76.49
17438;BME280;70275;52.198;5.422;2023-07-29T06:23:22;100545.66;;;18.73;75.43
17438;BME280;70275;52.198;5.422;2023-07-29T06:25:51;100552.88;;;19.08;74.41
17438;BME280;70275;52.198;5.422;2023-07-29T06:28:22;100556.94;;;19.19;73.95
17438;BME280;70275;52.198;5.422;2023-07-29T06:30:51;100560.13;;;18.72;75.11
17438;BME280;70275;52.198;5.422;2023-07-29T06:33:21;100556.41;;;18.73;75.46
17438;BME280;70275;52.198;5.422;2023-07-29T06:35:49;100553.84;;;18.65;75.83
17438;BME280;70275;52.198;5.422;2023-07-29T06:38:18;100566.41;;;18.79;75.75
17438;BME280;70275;52.198;5.422;2023-07-29T06:40:48;100570.69;;;18.59;76.17
17438;BME280;70275;52.198;5.422;2023-07-29T06:43:17;100559.34;;;18.78;75.80
17438;BME280;70275;52.198;5.422;2023-07-29T06:45:48;100557.84;;;18.90;75.65
17438;BME280;70275;52.198;5.422;2023-07-29T06:48:17;100567.00;;;19.17;74.91
17438;BME280;70275;52.198;5.422;2023-07-29T06:50:47;100562.09;;;19.20;74.52
17438;BME280;70275;52.198;5.422;2023-07-29T06:53:16;100570.69;;;19.30;74.11
17438;BME280;70275;52.198;5.422;2023-07-29T06:55:45;100573.03;;;19.61;73.21
17438;BME280;70275;52.198;5.422;2023-07-29T06:58:14;100568.72;;;19.39;73.31
17438;BME280;70275;52.198;5.422;2023-07-29T07:00:43;100572.66;;;19.92;72.10
17438;BME280;70275;52.198;5.422;2023-07-29T07:03:15;100575.53;;;19.63;73.01
17438;BME280;70275;52.198;5.422;2023-07-29T07:05:44;100573.34;;;19.52;73.37
17438;BME280;70275;52.198;5.422;2023-07-29T07:08:13;100570.91;;;19.14;74.65
17438;BME280;70275;52.198;5.422;2023-07-29T07:10:42;100562.41;;;19.32;73.94
17438;BME280;70275;52.198;5.422;2023-07-29T07:13:11;100578.91;;;19.29;74.45
17438;BME280;70275;52.198;5.422;2023-07-29T07:15:40;100580.22;;;19.82;73.06
17438;BME280;70275;52.198;5.422;2023-07-29T07:18:09;100570.16;;;19.90;71.53
17438;BME280;70275;52.198;5.422;2023-07-29T07:20:40;100574.50;;;19.91;72.12
17438;BME280;70275;52.198;5.422;2023-07-29T07:23:09;100576.59;;;19.96;72.05
17438;BME280;70275;52.198;5.422;2023-07-29T07:25:39;100579.97;;;20.26;71.03
17438;BME280;70275;52.198;5.422;2023-07-29T07:28:08;100581.53;;;20.20;71.43
17438;BME280;70275;52.198;5.422;2023-07-29T07:30:40;100585.31;;;19.98;71.57
17438;BME280;70275;52.198;5.422;2023-07-29T07:33:10;100586.88;;;19.58;73.27
17438;BME280;70275;52.198;5.422;2023-07-29T07:35:41;100583.97;;;19.60;73.60
17438;BME280;70275;52.198;5.422;2023-07-29T07:38:10;100590.38;;;19.59;73.71
17438;BME280;70275;52.198;5.422;2023-07-29T07:40:39;100580.41;;;19.53;73.87
17438;BME280;70275;52.198;5.422;2023-07-29T07:43:08;100579.78;;;19.51;73.83
17438;BME280;70275;52.198;5.422;2023-07-29T07:45:37;100586.22;;;19.56;73.73
17438;BME280;70275;52.198;5.422;2023-07-29T07:48:06;100577.34;;;19.83;72.68
17438;BME280;70275;52.198;5.422;2023-07-29T07:50:37;100587.28;;;19.83;72.97
17438;BME280;70275;52.198;5.422;2023-07-29T07:53:09;100593.31;;;19.64;73.26
17438;BME280;70275;52.198;5.422;2023-07-29T07:55:38;100590.00;;;20.17;72.26
17438;BME280;70275;52.198;5.422;2023-07-29T07:58:07;100587.44;;;20.02;72.21
17438;BME280;70275;52.198;5.422;2023-07-29T08:00:36;100583.16;;;19.87;73.06
17438;BME280;70275;52.198;5.422;2023-07-29T08:03:05;100591.38;;;19.79;72.96
17438;BME280;70275;52.198;5.422;2023-07-29T08:05:34;100592.38;;;20.27;72.34
17438;BME280;70275;52.198;5.422;2023-07-29T08:08:04;100597.25;;;20.44;71.08
17438;BME280;70275;52.198;5.422;2023-07-29T08:10:35;100598.59;;;20.27;71.81
17438;BME280;70275;52.198;5.422;2023-07-29T08:13:04;100594.16;;;20.20;72.14
17438;BME280;70275;52.198;5.422;2023-07-29T08:15:33;100602.22;;;20.47;71.01
17438;BME280;70275;52.198;5.422;2023-07-29T08:18:03;100597.13;;;20.25;71.13
17438;BME280;70275;52.198;5.422;2023-07-29T08:20:32;100602.97;;;20.75;70.36
17438;BME280;70275;52.198;5.422;2023-07-29T08:23:01;100593.25;;;20.74;69.88
17438;BME280;70275;52.198;5.422;2023-07-29T08:25:30;100590.75;;;20.32;70.18
17438;BME280;70275;52.198;5.422;2023-07-29T08:28:01;100594.16;;;19.92;71.28
17438;BME280;70275;52.198;5.422;2023-07-29T08:30:31;100600.63;;;19.97;71.67
17438;BME280;70275;52.198;5.422;2023-07-29T08:33:00;100606.28;;;20.30;71.16
17438;BME280;70275;52.198;5.422;2023-07-29T08:35:29;100603.94;;;20.61;69.50
17438;BME280;70275;52.198;5.422;2023-07-29T08:37:58;100595.84;;;20.61;69.44
17438;BME280;70275;52.198;5.422;2023-07-29T08:40:29;100595.19;;;20.46;69.14
17438;BME280;70275;52.198;5.422;2023-07-29T08:43:05;100595.34;;;20.45;69.71
17438;BME280;70275;52.198;5.422;2023-07-29T08:45:35;100590.81;;;20.86;68.26
17438;BME280;70275;52.198;5.422;2023-07-29T08:48:10;100590.09;;;21.38;67.18
17438;BME280;70275;52.198;5.422;2023-07-29T08:50:40;100594.66;;;21.37;66.59
17438;BME280;70275;52.198;5.422;2023-07-29T08:53:10;100606.22;;;21.12;66.88
17438;BME280;70275;52.198;5.422;2023-07-29T08:55:40;100592.44;;;20.87;67.10
17438;BME280;70275;52.198;5.422;2023-07-29T08:58:12;100595.88;;;21.09;67.67
17438;BME280;70275;52.198;5.422;2023-07-29T09:00:41;100607.06;;;21.19;67.16
17438;BME280;70275;52.198;5.422;2023-07-29T09:03:11;100599.06;;;20.85;68.24
17438;BME280;70275;52.198;5.422;2023-07-29T09:05:40;100598.03;;;20.86;67.89
17438;BME280;70275;52.198;5.422;2023-07-29T09:08:09;100602.75;;;20.77;68.54
17438;BME280;70275;52.198;5.422;2023-07-29T09:10:39;100592.59;;;20.72;69.28
17438;BME280;70275;52.198;5.422;2023-07-29T09:13:10;100608.09;;;20.64;68.55
17438;BME280;70275;52.198;5.422;2023-07-29T09:15:39;100616.84;;;20.38;70.23
17438;BME280;70275;52.198;5.422;2023-07-29T09:18:15;100607.41;;;20.21;71.07
17438;BME280;70275;52.198;5.422;2023-07-29T09:20:47;100610.25;;;20.13;71.63
17438;BME280;70275;52.198;5.422;2023-07-29T09:23:16;100617.59;;;20.60;71.81
17438;BME280;70275;52.198;5.422;2023-07-29T09:25:47;100612.75;;;20.83;70.06
17438;BME280;70275;52.198;5.422;2023-07-29T09:28:19;100614.50;;;21.10;68.10
17438;BME280;70275;52.198;5.422;2023-07-29T09:30:49;100609.41;;;20.74;68.66
17438;BME280;70275;52.198;5.422;2023-07-29T09:33:18;100600.81;;;21.05;67.74
17438;BME280;70275;52.198;5.422;2023-07-29T09:35:47;100606.44;;;21.23;67.17
17438;BME280;70275;52.198;5.422;2023-07-29T09:38:16;100607.94;;;21.32;66.90
17438;BME280;70275;52.198;5.422;2023-07-29T09:40:45;100600.50;;;21.41;65.76
17438;BME280;70275;52.198;5.422;2023-07-29T09:43:25;100598.84;;;21.60;65.40
17438;BME280;70275;52.198;5.422;2023-07-29T09:45:54;100592.81;;;21.77;64.27
17438;BME280;70275;52.198;5.422;2023-07-29T09:48:23;100592.63;;;21.72;64.96
17438;BME280;70275;52.198;5.422;2023-07-29T09:50:52;100600.09;;;21.70;63.95
17438;BME280;70275;52.198;5.422;2023-07-29T09:53:21;100590.72;;;21.33;65.09
17438;BME280;70275;52.198;5.422;2023-07-29T09:55:53;100598.41;;;21.30;65.70
17438;BME280;70275;52.198;5.422;2023-07-29T09:58:28;100608.72;;;21.07;66.50
17438;BME280;70275;52.198;5.422;2023-07-29T10:00:58;100610.28;;;20.95;67.33
17438;BME280;70275;52.198;5.422;2023-07-29T10:03:28;100606.88;;;20.73;67.56
17438;BME280;70275;52.198;5.422;2023-07-29T10:06:01;100615.81;;;20.73;67.68
17438;BME280;70275;52.198;5.422;2023-07-29T10:08:32;100613.41;;;20.98;67.98
17438;BME280;70275;52.198;5.422;2023-07-29T10:11:01;100611.78;;;21.04;68.05
17438;BME280;70275;52.198;5.422;2023-07-29T10:13:34;100609.06;;;20.97;67.64
17438;BME280;70275;52.198;5.422;2023-07-29T10:16:04;100620.03;;;20.96;67.63
17438;BME280;70275;52.198;5.422;2023-07-29T10:18:34;100615.19;;;21.25;67.71
17438;BME280;70275;52.198;5.422;2023-07-29T10:21:04;100613.97;;;21.41;67.00
17438;BME280;70275;52.198;5.422;2023-07-29T10:23:42;100615.25;;;21.65;65.93
17438;BME280;70275;52.198;5.422;2023-07-29T10:26:13;100605.91;;;21.93;64.35
17438;BME280;70275;52.198;5.422;2023-07-29T10:28:48;100620.47;;;21.92;64.58
17438;BME280;70275;52.198;5.422;2023-07-29T10:31:20;100611.69;;;21.77;65.39
17438;BME280;70275;52.198;5.422;2023-07-29T10:33:51;100620.22;;;21.61;66.05
17438;BME280;70275;52.198;5.422;2023-07-29T10:36:20;100625.53;;;21.22;66.85
17438;BME280;70275;52.198;5.422;2023-07-29T10:38:50;100634.88;;;21.26;66.64
17438;BME280;70275;52.198;5.422;2023-07-29T10:41:19;100631.69;;;20.62;70.80
17438;BME280;70275;52.198;5.422;2023-07-29T10:43:51;100638.91;;;19.72;75.42
17438;BME280;70275;52.198;5.422;2023-07-29T10:46:21;100630.91;;;19.00;79.15
17438;BME280;70275;52.198;5.422;2023-07-29T10:48:56;100639.19;;;19.05;81.15
17438;BME280;70275;52.198;5.422;2023-07-29T10:51:29;100630.44;;;19.32;80.88
17438;BME280;70275;52.198;5.422;2023-07-29T10:54:00;100621.09;;;19.71;80.74
17438;BME280;70275;52.198;5.422;2023-07-29T10:56:32;100615.88;;;19.42;78.84
17438;BME280;70275;52.198;5.422;2023-07-29T10:59:33;100621.69;;;19.09;79.95
17438;BME280;70275;52.198;5.422;2023-07-29T11:02:12;100613.56;;;19.38;79.56
17438;BME280;70275;52.198;5.422;2023-07-29T11:04:50;100621.53;;;19.32;81.52
17438;BME280;70275;52.198;5.422;2023-07-29T11:07:21;100624.41;;;19.73;79.78
17438;BME280;70275;52.198;5.422;2023-07-29T11:10:00;100624.47;;;19.79;80.55
17438;BME280;70275;52.198;5.422;2023-07-29T11:12:41;100625.84;;;19.69;80.08
17438;BME280;70275;52.198;5.422;2023-07-29T11:15:21;100631.97;;;19.84;79.93
17438;BME280;70275;52.198;5.422;2023-07-29T11:17:52;100627.75;;;19.75;79.98
17438;BME280;70275;52.198;5.422;2023-07-29T11:20:23;100633.00;;;19.83;80.03
17438;BME280;70275;52.198;5.422;2023-07-29T11:22:54;100619.19;;;20.20;79.14
17438;BME280;70275;52.198;5.422;2023-07-29T11:25:25;100636.53;;;20.11;79.90
17438;BME280;70275;52.198;5.422;2023-07-29T11:27:55;100640.44;;;19.81;79.34
17438;BME280;70275;52.198;5.422;2023-07-29T11:30:27;100636.31;;;19.64;78.93
17438;BME280;70275;52.198;5.422;2023-07-29T11:32:58;100637.59;;;19.68;80.06
17438;BME280;70275;52.198;5.422;2023-07-29T11:35:27;100627.75;;;19.32;81.03
17438;BME280;70275;52.198;5.422;2023-07-29T11:37:56;100631.41;;;19.10;80.77
17438;BME280;70275;52.198;5.422;2023-07-29T11:40:25;100633.19;;;19.03;81.57
17438;BME280;70275;52.198;5.422;2023-07-29T11:42:54;100627.19;;;18.87;81.40
17438;BME280;70275;52.198;5.422;2023-07-29T11:45:23;100630.06;;;19.00;82.63
17438;BME280;70275;52.198;5.422;2023-07-29T11:47:55;100627.19;;;18.87;82.54
17438;BME280;70275;52.198;5.422;2023-07-29T11:50:24;100628.09;;;18.94;81.63
17438;BME280;70275;52.198;5.422;2023-07-29T11:52:54;100637.50;;;19.19;82.68
17438;BME280;70275;52.198;5.422;2023-07-29T11:55:24;100627.50;;;19.13;80.96
17438;BME280;70275;52.198;5.422;2023-07-29T11:57:53;100628.75;;;19.31;80.53
17438;BME280;70275;52.198;5.422;2023-07-29T12:00:22;100623.16;;;19.69;78.60
17438;BME280;70275;52.198;5.422;2023-07-29T12:02:55;100633.25;;;19.88;77.73
17438;BME280;70275;52.198;5.422;2023-07-29T12:05:25;100633.28;;;20.91;75.27
17438;BME280;70275;52.198;5.422;2023-07-29T12:07:54;100625.38;;;20.83;74.39
17438;BME280;70275;52.198;5.422;2023-07-29T12:10:25;100625.78;;;22.45;72.29
17438;BME280;70275;52.198;5.422;2023-07-29T12:12:55;100617.72;;;22.25;68.62
17438;BME280;70275;52.198;5.422;2023-07-29T12:15:26;100618.47;;;23.09;67.61
17438;BME280;70275;52.198;5.422;2023-07-29T12:17:59;100629.63;;;22.88;66.70
17438;BME280;70275;52.198;5.422;2023-07-29T12:20:30;100619.59;;;22.25;68.47
17438;BME280;70275;52.198;5.422;2023-07-29T12:23:00;100631.34;;;23.20;65.87
17438;BME280;70275;52.198;5.422;2023-07-29T12:25:32;100636.41;;;22.27;66.95
17438;BME280;70275;52.198;5.422;2023-07-29T12:28:05;100626.44;;;22.27;68.39
17438;BME280;70275;52.198;5.422;2023-07-29T12:30:41;100627.38;;;22.78;66.11
17438;BME280;70275;52.198;5.422;2023-07-29T12:33:30;100623.19;;;22.83;65.65
17438;BME280;70275;52.198;5.422;2023-07-29T12:35:59;100620.44;;;22.19;67.30
17438;BME280;70275;52.198;5.422;2023-07-29T12:38:29;100605.31;;;21.91;67.37
17438;BME280;70275;52.198;5.422;2023-07-29T12:40:58;100613.13;;;21.47;68.58
17438;BME280;70275;52.198;5.422;2023-07-29T12:43:28;100612.56;;;21.84;67.43
17438;BME280;70275;52.198;5.422;2023-07-29T12:45:58;100613.53;;;21.24;69.40
17438;BME280;70275;52.198;5.422;2023-07-29T12:48:29;100616.66;;;21.48;68.97
17438;BME280;70275;52.198;5.422;2023-07-29T12:50:58;100619.59;;;21.72;67.13
17438;BME280;70275;52.198;5.422;2023-07-29T12:53:27;100617.97;;;22.04;67.46
17438;BME280;70275;52.198;5.422;2023-07-29T12:55:56;100611.97;;;22.86;65.97
17438;BME280;70275;52.198;5.422;2023-07-29T12:58:27;100617.75;;;23.65;63.13
17438;BME280;70275;52.198;5.422;2023-07-29T13:00:56;100613.00;;;24.52;60.09
17438;BME280;70275;52.198;5.422;2023-07-29T13:03:25;100619.09;;;23.49;63.35
17438;BME280;70275;52.198;5.422;2023-07-29T13:05:57;100612.47;;;23.76;61.15